Caramelle — SEVO — position and weather

sailwx.info

Track history (hours):
 
Tides and Currents Weather Stations Pressure Air Temp Water Temp Dewpoint Dewpoint Depression Visibility Wind Speed Wind Dir Waves Ship Positions

Caramelle

Last reported at 2018-Jul-12 08:54 UTC. Time now 2018-Jul-23 13:51 UTC.
Position N 38°18' E 015°34'.
Warning: this ship's position is 11 days out of date.

Length 17 m.

Type: Sailing vessel. MMSI: 266309000.

Date/timePositionNaut miles runAvg speedWind from/ knotsBaromVisibWave heightAir tempDewpointWater temp
2018-Jul-12 08:54N 38°18' E 015°34'3 7.4
2018-Jul-12 08:29N 38°18' E 015°30'4 7.2
2018-Jul-12 07:59N 38°17' E 015°26'3 7.0
2018-Jul-12 07:30N 38°16' E 015°22'3 6.7
2018-Jul-12 07:00N 38°14' E 015°18'3 4.9
2018-Jul-12 06:26N 38°13' E 015°15'0 0.1
2018-Jul-12 05:56N 38°13' E 015°15'0 0.0
2018-Jul-12 05:26N 38°13' E 015°15'0 0.0
2018-Jul-12 04:56N 38°13' E 015°15'0 0.0
2018-Jul-12 04:26N 38°13' E 015°15'0 0.0
2018-Jul-12 03:56N 38°13' E 015°15'0 0.0
2018-Jul-12 03:26N 38°13' E 015°15'0 0.0
2018-Jul-12 02:56N 38°13' E 015°15'0 0.0
2018-Jul-12 02:26N 38°13' E 015°15'0 0.0
2018-Jul-12 01:56N 38°13' E 015°15'0 0.0
2018-Jul-12 01:26N 38°13' E 015°15'0 0.0
2018-Jul-12 00:56N 38°13' E 015°15'0 0.0
2018-Jul-12 00:26N 38°13' E 015°15'0 0.0
2018-Jul-11 23:56N 38°13' E 015°15'0 0.0
2018-Jul-11 23:26N 38°13' E 015°15'0 0.0
2018-Jul-11 22:56N 38°13' E 015°15'0 0.0
2018-Jul-11 22:20N 38°13' E 015°15'0 0.0
2018-Jul-11 21:50N 38°13' E 015°15'0 0.0
2018-Jul-11 21:26N 38°13' E 015°15'0 0.0
2018-Jul-11 20:56N 38°13' E 015°15'0 0.0
2018-Jul-11 20:26N 38°13' E 015°15'0 0.0
2018-Jul-11 19:56N 38°13' E 015°15'0 0.0
2018-Jul-11 19:26N 38°13' E 015°15'0 0.0
2018-Jul-11 18:56N 38°13' E 015°15'0 0.0
2018-Jul-11 18:26N 38°13' E 015°15'0 0.0
2018-Jul-11 17:56N 38°13' E 015°15'0 0.0
2018-Jul-11 17:20N 38°13' E 015°15'0 0.0
2018-Jul-11 16:50N 38°13' E 015°15'0 0.0
2018-Jul-11 16:26N 38°13' E 015°15'0 0.0
2018-Jul-11 15:56N 38°13' E 015°15'0 0.0
2018-Jul-11 15:26N 38°13' E 015°15'0 0.0
2018-Jul-11 14:56N 38°13' E 015°15'0 0.0
2018-Jul-11 14:26N 38°13' E 015°15'0 0.0
2018-Jul-11 13:56N 38°13' E 015°15'0 0.0
2018-Jul-11 13:26N 38°13' E 015°15'0 0.0
2018-Jul-11 12:56N 38°13' E 015°15'0 0.0
2018-Jul-11 12:26N 38°13' E 015°15'0 0.0
2018-Jul-11 11:56N 38°13' E 015°15'0 0.0
2018-Jul-11 11:26N 38°13' E 015°15'0 0.0
2018-Jul-11 10:44N 38°13' E 015°15'0 0.0
2018-Jul-11 10:27N 38°13' E 015°15'0 0.0
2018-Jul-11 09:57N 38°13' E 015°15'0 0.0
2018-Jul-11 09:27N 38°13' E 015°15'0 0.0
2018-Jul-11 08:57N 38°13' E 015°15'0 0.0
2018-Jul-11 08:27N 38°13' E 015°15'0 0.0
2018-Jul-11 07:57N 38°13' E 015°15'0 0.8
2018-Jul-11 07:30N 38°13' E 015°15'3 5.3
2018-Jul-11 07:00N 38°16' E 015°15'2 3.4
2018-Jul-11 06:23N 38°17' E 015°13'2 4.2
2018-Jul-11 05:59N 38°17' E 015°11'3 4.3
2018-Jul-11 05:22N 38°16' E 015°08'72 4.7
2018-Jul-10 14:01N 38°07' E 013°37'6 4.2
2018-Jul-10 12:34N 38°08' E 013°30'0 4.8
2018-Jul-10 12:30N 38°09' E 013°29'2 4.4
2018-Jul-10 11:57N 38°10' E 013°27'3 5.6
2018-Jul-10 11:28N 38°11' E 013°24'3 6.1
2018-Jul-10 11:00N 38°13' E 013°21'3 5.8
2018-Jul-10 10:29N 38°14' E 013°17'  
Track history (hours):
 
Tides and Currents Weather Stations Pressure Air Temp Water Temp Dewpoint Dewpoint Depression Visibility Wind Speed Wind Dir Waves Ship Positions

Caramelle

Last reported at 2018-Jul-12 08:54 UTC. Time now 2018-Jul-23 13:51 UTC.
Position N 38°18' E 015°34'.
Warning: this ship's position is 11 days out of date.

Length 17 m.

Type: Sailing vessel. MMSI: 266309000.

Date/timePositionNaut miles runAvg speedWind from/ knotsBaromVisibWave heightAir tempDewpointWater temp
2018-Jul-12 08:54N 38°18' E 015°34'3 7.4
2018-Jul-12 08:29N 38°18' E 015°30'4 7.2
2018-Jul-12 07:59N 38°17' E 015°26'3 7.0
2018-Jul-12 07:30N 38°16' E 015°22'3 6.7
2018-Jul-12 07:00N 38°14' E 015°18'3 4.9
2018-Jul-12 06:26N 38°13' E 015°15'0 0.1
2018-Jul-12 05:56N 38°13' E 015°15'0 0.0
2018-Jul-12 05:26N 38°13' E 015°15'0 0.0
2018-Jul-12 04:56N 38°13' E 015°15'0 0.0
2018-Jul-12 04:26N 38°13' E 015°15'0 0.0
2018-Jul-12 03:56N 38°13' E 015°15'0 0.0
2018-Jul-12 03:26N 38°13' E 015°15'0 0.0
2018-Jul-12 02:56N 38°13' E 015°15'0 0.0
2018-Jul-12 02:26N 38°13' E 015°15'0 0.0
2018-Jul-12 01:56N 38°13' E 015°15'0 0.0
2018-Jul-12 01:26N 38°13' E 015°15'0 0.0
2018-Jul-12 00:56N 38°13' E 015°15'0 0.0
2018-Jul-12 00:26N 38°13' E 015°15'0 0.0
2018-Jul-11 23:56N 38°13' E 015°15'0 0.0
2018-Jul-11 23:26N 38°13' E 015°15'0 0.0
2018-Jul-11 22:56N 38°13' E 015°15'0 0.0
2018-Jul-11 22:20N 38°13' E 015°15'0 0.0
2018-Jul-11 21:50N 38°13' E 015°15'0 0.0
2018-Jul-11 21:26N 38°13' E 015°15'0 0.0
2018-Jul-11 20:56N 38°13' E 015°15'0 0.0
2018-Jul-11 20:26N 38°13' E 015°15'0 0.0
2018-Jul-11 19:56N 38°13' E 015°15'0 0.0
2018-Jul-11 19:26N 38°13' E 015°15'0 0.0
2018-Jul-11 18:56N 38°13' E 015°15'0 0.0
2018-Jul-11 18:26N 38°13' E 015°15'0 0.0
2018-Jul-11 17:56N 38°13' E 015°15'0 0.0
2018-Jul-11 17:20N 38°13' E 015°15'0 0.0
2018-Jul-11 16:50N 38°13' E 015°15'0 0.0
2018-Jul-11 16:26N 38°13' E 015°15'0 0.0
2018-Jul-11 15:56N 38°13' E 015°15'0 0.0
2018-Jul-11 15:26N 38°13' E 015°15'0 0.0
2018-Jul-11 14:56N 38°13' E 015°15'0 0.0
2018-Jul-11 14:26N 38°13' E 015°15'0 0.0
2018-Jul-11 13:56N 38°13' E 015°15'0 0.0
2018-Jul-11 13:26N 38°13' E 015°15'0 0.0
2018-Jul-11 12:56N 38°13' E 015°15'0 0.0
2018-Jul-11 12:26N 38°13' E 015°15'0 0.0
2018-Jul-11 11:56N 38°13' E 015°15'0 0.0
2018-Jul-11 11:26N 38°13' E 015°15'0 0.0
2018-Jul-11 10:44N 38°13' E 015°15'0 0.0
2018-Jul-11 10:27N 38°13' E 015°15'0 0.0
2018-Jul-11 09:57N 38°13' E 015°15'0 0.0
2018-Jul-11 09:27N 38°13' E 015°15'0 0.0
2018-Jul-11 08:57N 38°13' E 015°15'0 0.0
2018-Jul-11 08:27N 38°13' E 015°15'0 0.0
2018-Jul-11 07:57N 38°13' E 015°15'0 0.8
2018-Jul-11 07:30N 38°13' E 015°15'3 5.3
2018-Jul-11 07:00N 38°16' E 015°15'2 3.4
2018-Jul-11 06:23N 38°17' E 015°13'2 4.2
2018-Jul-11 05:59N 38°17' E 015°11'3 4.3
2018-Jul-11 05:22N 38°16' E 015°08'72 4.7
2018-Jul-10 14:01N 38°07' E 013°37'6 4.2
2018-Jul-10 12:34N 38°08' E 013°30'0 4.8
2018-Jul-10 12:30N 38°09' E 013°29'2 4.4
2018-Jul-10 11:57N 38°10' E 013°27'3 5.6
2018-Jul-10 11:28N 38°11' E 013°24'3 6.1
2018-Jul-10 11:00N 38°13' E 013°21'3 5.8
2018-Jul-10 10:29N 38°14' E 013°17'  

Dump ship's entire track history